createdAt,value
2022-10-20T00:04:35.342Z,11.70
2022-10-20T00:09:38.326Z,11.70
2022-10-20T00:14:40.994Z,11.70
2022-10-20T00:19:46.905Z,11.70
2022-10-20T00:24:51.276Z,11.60
2022-10-20T00:29:54.351Z,11.70
2022-10-20T00:34:57.140Z,11.70
2022-10-20T00:39:59.945Z,11.80
2022-10-20T00:45:02.736Z,11.70
2022-10-20T00:50:19.588Z,11.80
2022-10-20T00:55:28.974Z,11.80
2022-10-20T01:00:32.026Z,11.70
2022-10-20T01:05:34.881Z,11.70
2022-10-20T01:10:49.516Z,11.80
2022-10-20T01:16:02.203Z,11.70
2022-10-20T01:21:33.115Z,11.70
2022-10-20T01:26:49.802Z,11.60
2022-10-20T01:32:18.903Z,11.70
2022-10-20T01:37:49.328Z,11.90
2022-10-20T01:42:54.962Z,11.80
2022-10-20T01:48:01.189Z,11.70
2022-10-20T01:53:03.983Z,11.80
2022-10-20T01:58:30.839Z,11.80
2022-10-20T02:03:55.527Z,11.70
2022-10-20T02:09:01.224Z,11.60
2022-10-20T02:14:05.567Z,11.60
2022-10-20T02:19:10.581Z,11.60
2022-10-20T02:24:15.905Z,11.70
2022-10-20T02:29:27.013Z,11.80
2022-10-20T02:34:29.966Z,11.70
2022-10-20T02:39:32.270Z,11.80
2022-10-20T02:44:34.893Z,13.30
2022-10-20T02:49:37.854Z,11.70
2022-10-20T02:54:40.923Z,11.70
2022-10-20T02:59:43.245Z,11.50
2022-10-20T03:04:45.557Z,11.50
2022-10-20T03:09:47.803Z,11.60
2022-10-20T03:14:50.206Z,11.60
2022-10-20T03:19:52.494Z,11.60
2022-10-20T03:24:54.745Z,11.50
2022-10-20T03:29:57.090Z,11.50
2022-10-20T03:34:59.357Z,11.50
2022-10-20T03:40:02.511Z,11.50
2022-10-20T03:45:05.500Z,11.50
2022-10-20T03:50:08.498Z,11.60
2022-10-20T03:55:10.793Z,11.60
2022-10-20T04:00:13.767Z,11.50
2022-10-20T04:05:19.141Z,11.40
2022-10-20T04:10:21.438Z,11.50
2022-10-20T04:15:24.294Z,11.50
2022-10-20T04:20:26.720Z,11.50
2022-10-20T04:25:29.023Z,11.50
2022-10-20T04:30:31.391Z,11.60
2022-10-20T04:35:33.780Z,11.60
2022-10-20T04:40:36.109Z,11.60
2022-10-20T04:45:38.591Z,11.60
2022-10-20T04:50:40.938Z,11.40
2022-10-20T04:55:43.767Z,11.50
2022-10-20T05:00:46.114Z,11.60
2022-10-20T05:05:48.478Z,11.50
2022-10-20T05:10:50.760Z,11.60
2022-10-20T05:15:53.495Z,11.60
2022-10-20T05:21:08.370Z,11.50
2022-10-20T05:26:15.804Z,11.50
2022-10-20T05:31:21.700Z,11.40
2022-10-20T05:36:26.739Z,11.40
2022-10-20T05:41:33.409Z,11.60
2022-10-20T05:46:42.707Z,11.50
2022-10-20T05:51:46.681Z,11.50
2022-10-20T05:56:49.028Z,11.50
2022-10-20T06:01:52.792Z,11.60
2022-10-20T06:06:55.943Z,11.60
2022-10-20T06:11:59.681Z,11.50
2022-10-20T06:17:02.053Z,11.60
2022-10-20T06:22:07.066Z,11.50
2022-10-20T06:27:09.453Z,11.60
2022-10-20T06:32:11.747Z,11.80
2022-10-20T06:37:14.217Z,11.50
2022-10-20T06:42:16.598Z,11.60
2022-10-20T06:47:21.938Z,11.70
2022-10-20T06:52:24.338Z,11.60
2022-10-20T06:57:26.614Z,11.80
2022-10-20T07:02:29.112Z,11.90
2022-10-20T07:07:32.282Z,12.00
2022-10-20T07:12:34.914Z,12.00
2022-10-20T07:17:37.592Z,11.90
2022-10-20T07:22:40.070Z,12.00
2022-10-20T07:27:42.417Z,12.00
2022-10-20T07:32:44.697Z,12.30
2022-10-20T07:37:47.567Z,12.30
2022-10-20T07:42:49.861Z,12.50
2022-10-20T07:47:52.293Z,12.60
2022-10-20T07:52:54.728Z,12.60
2022-10-20T07:57:56.977Z,12.70
2022-10-20T08:02:59.228Z,12.70
2022-10-20T08:08:01.831Z,12.80
2022-10-20T08:13:04.143Z,12.80
2022-10-20T08:18:08.142Z,12.60
2022-10-20T08:23:10.423Z,12.60
2022-10-20T08:28:12.778Z,12.50
2022-10-20T08:33:15.054Z,12.80
2022-10-20T08:38:17.385Z,12.80
2022-10-20T08:43:20.010Z,13.00
2022-10-20T08:48:26.741Z,13.00
2022-10-20T08:53:34.279Z,13.20
2022-10-20T08:58:43.387Z,13.10
2022-10-20T09:03:52.929Z,13.10
2022-10-20T09:08:56.460Z,13.30
2022-10-20T09:13:58.853Z,13.30
2022-10-20T09:19:01.979Z,13.00
2022-10-20T09:24:06.269Z,13.10
2022-10-20T09:29:14.392Z,13.20
2022-10-20T09:34:27.275Z,13.40
2022-10-20T09:39:39.937Z,13.70
2022-10-20T09:44:49.283Z,13.60
2022-10-20T09:50:01.790Z,13.90
2022-10-20T09:55:17.010Z,13.90
2022-10-20T10:00:36.423Z,14.10
2022-10-20T10:05:39.833Z,13.90
2022-10-20T10:10:45.437Z,13.80
2022-10-20T10:15:47.993Z,13.80
2022-10-20T10:21:00.896Z,13.80
2022-10-20T10:26:24.738Z,13.80
2022-10-20T10:31:27.482Z,15.50
2022-10-20T10:36:36.861Z,14.00
2022-10-20T10:42:15.013Z,14.10
2022-10-20T10:47:46.759Z,14.00
2022-10-20T10:53:00.104Z,14.10
2022-10-20T10:58:10.024Z,14.00
2022-10-20T11:03:37.680Z,14.20
2022-10-20T11:08:48.267Z,13.90
2022-10-20T11:14:15.699Z,13.90
2022-10-20T11:19:24.869Z,14.00
2022-10-20T11:24:38.576Z,14.00
2022-10-20T11:30:05.272Z,13.90
2022-10-20T11:35:22.450Z,13.70
2022-10-20T11:40:29.506Z,13.70
2022-10-20T11:45:54.750Z,13.70
2022-10-20T11:56:37.607Z,13.70
2022-10-20T12:02:01.783Z,13.60
2022-10-20T12:07:22.275Z,13.90
2022-10-20T12:12:38.808Z,14.10
2022-10-20T12:17:42.578Z,14.30
2022-10-20T12:22:44.906Z,14.40
2022-10-20T12:28:07.641Z,14.40
2022-10-20T12:33:18.578Z,14.40
2022-10-20T12:38:22.467Z,14.60
2022-10-20T12:43:52.932Z,14.60
2022-10-20T12:48:59.930Z,14.60
2022-10-20T12:54:23.047Z,14.60
2022-10-20T12:59:29.227Z,14.50
2022-10-20T13:04:59.251Z,14.60
2022-10-20T13:10:04.203Z,14.70
2022-10-20T13:15:12.898Z,14.70
2022-10-20T13:20:46.362Z,15.00
2022-10-20T13:25:53.660Z,15.20
2022-10-20T13:30:58.356Z,15.40
2022-10-20T13:36:26.481Z,15.60
2022-10-20T13:41:43.497Z,16.00
2022-10-20T13:46:53.980Z,16.10
2022-10-20T13:52:03.807Z,16.30
2022-10-20T13:57:08.173Z,16.20
2022-10-20T14:02:25.552Z,16.20
2022-10-20T14:07:37.028Z,16.30
2022-10-20T14:12:39.912Z,16.20
2022-10-20T14:17:42.641Z,16.20
2022-10-20T14:22:46.021Z,16.30
2022-10-20T14:27:51.261Z,16.30
2022-10-20T14:32:54.705Z,16.50
2022-10-20T14:38:06.167Z,16.50
2022-10-20T14:43:47.534Z,16.60
2022-10-20T14:48:54.342Z,16.50
2022-10-20T14:54:20.063Z,16.40
2022-10-20T14:59:30.944Z,15.70
2022-10-20T15:04:36.177Z,16.60
2022-10-20T15:09:42.522Z,16.60
2022-10-20T15:14:48.923Z,16.50
2022-10-20T15:19:51.270Z,16.70
2022-10-20T15:24:53.739Z,16.90
2022-10-20T15:29:56.058Z,16.90
2022-10-20T15:35:04.784Z,17.00
2022-10-20T15:40:09.862Z,17.10
2022-10-20T15:45:19.964Z,17.10
2022-10-20T15:50:27.823Z,17.40
2022-10-20T15:55:37.312Z,17.50
2022-10-20T16:00:39.922Z,17.70
2022-10-20T16:05:42.304Z,17.70
2022-10-20T16:10:44.693Z,17.70
2022-10-20T16:15:47.155Z,17.60
2022-10-20T16:20:49.602Z,17.40
2022-10-20T16:25:52.270Z,17.20
2022-10-20T16:31:09.390Z,17.00
2022-10-20T16:36:14.929Z,17.00
2022-10-20T16:41:18.128Z,16.90
2022-10-20T16:46:20.772Z,16.70
2022-10-20T16:51:23.213Z,16.70
2022-10-20T16:56:26.364Z,16.60
2022-10-20T17:01:28.891Z,16.60
2022-10-20T17:06:31.427Z,16.50
2022-10-20T17:11:33.982Z,16.60
2022-10-20T17:16:39.542Z,16.50
2022-10-20T17:21:41.858Z,16.40
2022-10-20T17:26:44.484Z,16.70
2022-10-20T17:31:46.791Z,16.80
2022-10-20T17:36:49.157Z,16.80
2022-10-20T17:41:51.518Z,17.10
2022-10-20T17:46:53.804Z,17.30
2022-10-20T17:51:56.280Z,17.30
2022-10-20T17:56:59.362Z,17.30
2022-10-20T18:02:04.313Z,17.30
2022-10-20T18:07:06.712Z,17.40
2022-10-20T18:12:09.527Z,17.40
2022-10-20T18:17:11.888Z,17.30
2022-10-20T18:22:14.211Z,17.30
2022-10-20T18:27:16.547Z,17.20
2022-10-20T18:32:18.907Z,17.30
2022-10-20T18:37:21.305Z,16.80
2022-10-20T18:42:23.989Z,16.70
2022-10-20T18:47:26.266Z,16.30
2022-10-20T18:52:28.515Z,16.60
2022-10-20T18:57:33.016Z,16.70
2022-10-20T19:02:37.416Z,16.70
2022-10-20T19:07:41.215Z,16.50
2022-10-20T19:12:43.775Z,16.80
2022-10-20T19:17:46.507Z,16.90
2022-10-20T19:22:48.800Z,16.70
2022-10-20T19:27:51.971Z,16.80
2022-10-20T19:32:54.840Z,16.90
2022-10-20T19:37:57.201Z,17.00
2022-10-20T19:42:59.501Z,17.10
2022-10-20T19:48:02.131Z,17.30
2022-10-20T19:53:05.618Z,17.30
2022-10-20T20:03:12.102Z,17.30
2022-10-20T20:08:14.936Z,17.10
2022-10-20T20:13:17.330Z,16.60
2022-10-20T20:18:20.170Z,16.60
2022-10-20T20:23:26.069Z,16.80
2022-10-20T20:28:37.808Z,16.70
2022-10-20T20:33:40.146Z,16.60
2022-10-20T20:38:42.666Z,16.80
2022-10-20T20:43:45.235Z,16.60
2022-10-20T20:48:47.751Z,16.40
2022-10-20T20:53:50.139Z,16.70
2022-10-20T20:58:55.417Z,16.60
2022-10-20T21:04:01.453Z,16.40
2022-10-20T21:09:05.026Z,16.20
2022-10-20T21:14:07.486Z,16.10
2022-10-20T21:19:10.653Z,16.30
2022-10-20T21:24:13.189Z,16.20
2022-10-20T21:29:17.519Z,16.20
2022-10-20T21:34:19.894Z,16.40
2022-10-20T21:39:22.418Z,16.60
2022-10-20T21:44:24.806Z,16.80
2022-10-20T21:49:27.124Z,16.90
2022-10-20T21:54:29.920Z,16.70
2022-10-20T21:59:32.178Z,16.70
2022-10-20T22:04:34.900Z,16.90
2022-10-20T22:09:37.443Z,16.80
2022-10-20T22:14:42.563Z,16.50
2022-10-20T22:19:47.435Z,16.30
2022-10-20T22:24:49.810Z,16.20
2022-10-20T22:29:54.070Z,16.70
2022-10-20T22:34:59.003Z,16.30
2022-10-20T22:40:01.408Z,16.90
2022-10-20T22:45:04.087Z,16.30
2022-10-20T22:50:06.934Z,16.10
2022-10-20T22:55:09.411Z,16.00
2022-10-20T23:00:12.424Z,16.30
2022-10-20T23:05:14.995Z,16.00
2022-10-20T23:10:17.628Z,16.50
2022-10-20T23:15:20.006Z,16.90
2022-10-20T23:20:22.356Z,17.00
2022-10-20T23:25:24.745Z,17.10
2022-10-20T23:30:27.074Z,17.20
2022-10-20T23:35:29.464Z,17.10
2022-10-20T23:40:32.003Z,17.00
2022-10-20T23:45:36.994Z,17.00
2022-10-20T23:50:40.497Z,17.20
2022-10-20T23:55:43.362Z,17.20
